Time;durP1;ratioP1;P1;durP2;ratioP2;P2;SDS_P1;SDS_P2;PMS_P1;PMS_P2;Temp;Humidity;BMP_temperature;BMP_pressure;BME280_temperature;BME280_humidity;BME280_pressure;Samples;Min_cycle;Max_cycle;Signal;HPM_P1;HPM_P2
2021/09/26 00:01:32;;;;;;;55.83;26.33;;;12.40;99.90;;;;;;4984592;28;20111;-67
2021/09/26 00:03:59;;;;;;;79.25;31.67;;;12.60;99.90;;;;;;5002222;28;20080;-67
2021/09/26 00:06:26;;;;;;;65.50;27.10;;;12.50;99.90;;;;;;4998408;28;20582;-67
2021/09/26 00:08:53;;;;;;;72.97;30.15;;;12.40;99.90;;;;;;4999553;28;20505;-67
2021/09/26 00:11:19;;;;;;;63.33;27.10;;;12.30;99.90;;;;;;4998674;28;20054;-68
2021/09/26 00:13:46;;;;;;;71.38;28.60;;;12.30;99.90;;;;;;4965221;28;20058;-67
2021/09/26 00:16:13;;;;;;;69.20;28.45;;;12.30;99.90;;;;;;4984067;28;20383;-67
2021/09/26 00:18:40;;;;;;;104.85;35.65;;;12.50;99.90;;;;;;5000624;28;20132;-67
2021/09/26 00:21:07;;;;;;;79.43;30.02;;;12.50;99.90;;;;;;5001202;28;20398;-67
2021/09/26 00:23:35;;;;;;;67.88;29.52;;;12.40;99.90;;;;;;5000881;28;20104;-67
2021/09/26 00:26:04;;;;;;;72.65;28.67;;;12.40;99.90;;;;;;5001472;28;20054;-67
2021/09/26 00:28:32;;;;;;;96.75;33.25;;;12.30;99.90;;;;;;4996440;28;20050;-67
2021/09/26 00:30:59;;;;;;;69.78;29.45;;;12.40;99.90;;;;;;4976874;28;20553;-67
2021/09/26 00:33:26;;;;;;;83.88;32.85;;;12.50;99.90;;;;;;4996724;28;20077;-67
2021/09/26 00:35:52;;;;;;;85.35;33.70;;;12.60;99.90;;;;;;4982331;28;20054;-67
2021/09/26 00:38:19;;;;;;;92.90;34.45;;;12.60;99.90;;;;;;4995639;28;20116;-67
2021/09/26 00:40:49;;;;;;;97.82;36.42;;;12.70;99.90;;;;;;4983748;28;20050;-67
2021/09/26 00:43:16;;;;;;;79.03;31.05;;;12.70;99.90;;;;;;4982684;28;20057;-68
2021/09/26 00:45:44;;;;;;;91.35;32.88;;;12.70;99.90;;;;;;4996723;28;20055;-67
2021/09/26 00:48:11;;;;;;;87.00;33.70;;;12.80;99.90;;;;;;5001399;28;20502;-67
2021/09/26 00:50:39;;;;;;;109.90;36.97;;;12.70;99.90;;;;;;5000894;28;20056;-67
2021/09/26 00:53:06;;;;;;;96.43;34.20;;;12.70;99.90;;;;;;4999983;28;20046;-67
2021/09/26 00:55:33;;;;;;;85.32;30.55;;;12.50;99.90;;;;;;5001239;28;20735;-67
2021/09/26 00:58:00;;;;;;;72.88;30.08;;;12.50;99.90;;;;;;4998897;28;20054;-67
2021/09/26 01:00:28;;;;;;;83.45;31.25;;;12.40;99.90;;;;;;5012563;28;20048;-67
2021/09/26 01:02:55;;;;;;;88.60;33.83;;;12.50;99.90;;;;;;5000170;28;20089;-67
2021/09/26 01:05:27;;;;;;;89.78;32.88;;;12.60;99.90;;;;;;5001229;28;20062;-67
2021/09/26 01:08:15;;;;;;;77.50;29.65;;;12.50;99.90;;;;;;5000301;28;20057;-68
2021/09/26 01:11:12;;;;;;;81.88;30.25;;;12.60;99.90;;;;;;4998943;28;20125;-67
2021/09/26 01:13:57;;;;;;;82.85;30.67;;;12.50;99.90;;;;;;4998287;28;20065;-67
2021/09/26 01:16:36;;;;;;;80.82;30.42;;;12.30;99.90;;;;;;4966105;28;20038;-67
2021/09/26 01:19:17;;;;;;;76.65;29.75;;;12.20;99.90;;;;;;4983296;28;20449;-68
2021/09/26 01:21:48;;;;;;;89.93;33.15;;;12.30;99.90;;;;;;4998102;28;20052;-67
2021/09/26 01:24:42;;;;;;;85.75;31.38;;;12.30;99.90;;;;;;4983048;28;20052;-67
2021/09/26 01:27:24;;;;;;;88.00;31.40;;;12.10;99.90;;;;;;4992399;28;20395;-67
2021/09/26 01:30:09;;;;;;;109.93;34.45;;;12.00;99.90;;;;;;4996307;28;20057;-67
2021/09/26 01:32:39;;;;;;;100.82;34.22;;;12.10;99.90;;;;;;4984390;28;20049;-67
2021/09/26 01:35:10;;;;;;;102.75;33.53;;;12.00;99.90;;;;;;4986125;28;20555;-67
2021/09/26 01:37:49;;;;;;;91.43;34.40;;;12.10;99.90;;;;;;4992494;28;20048;-67
2021/09/26 01:40:24;;;;;;;94.07;33.83;;;12.30;99.90;;;;;;4987038;28;20490;-68
2021/09/26 01:42:53;;;;;;;;;;;12.20;99.90;;;;;;4991046;28;20134;-67
2021/09/26 01:45:54;;;;;;;99.20;34.05;;;12.20;99.90;;;;;;4998642;28;20000;-68
2021/09/26 01:48:34;;;;;;;87.82;31.63;;;12.30;99.90;;;;;;4961589;28;20058;-68
2021/09/26 01:51:03;;;;;;;81.45;31.88;;;12.30;99.90;;;;;;4982380;28;20054;-68
2021/09/26 01:53:31;;;;;;;91.78;33.78;;;12.20;99.90;;;;;;4968116;28;20043;-68
2021/09/26 01:56:00;;;;;;;79.10;30.95;;;12.30;99.90;;;;;;4990007;28;20068;-68
2021/09/26 01:58:29;;;;;;;98.80;35.72;;;12.30;99.90;;;;;;4996123;28;20357;-68
2021/09/26 02:00:56;;;;;;;84.38;33.30;;;12.30;99.90;;;;;;4997228;28;20104;-68
2021/09/26 02:03:23;;;;;;;89.32;34.45;;;12.30;99.90;;;;;;5002469;28;20042;-68
2021/09/26 02:05:52;;;;;;;90.85;32.47;;;12.40;99.90;;;;;;5002183;28;20050;-67
2021/09/26 02:08:20;;;;;;;89.82;32.45;;;12.40;99.90;;;;;;5001639;28;20049;-68
2021/09/26 02:10:48;;;;;;;85.63;32.25;;;12.30;99.90;;;;;;5001783;28;20050;-68
2021/09/26 02:13:16;;;;;;;91.40;33.50;;;12.30;99.90;;;;;;5000738;28;20046;-68
2021/09/26 02:15:45;;;;;;;95.03;33.28;;;12.40;99.90;;;;;;5003255;28;20092;-69
2021/09/26 02:18:12;;;;;;;114.65;37.75;;;12.30;99.90;;;;;;4984623;28;20073;-68
2021/09/26 02:20:40;;;;;;;103.15;34.30;;;12.30;99.90;;;;;;5000967;28;20396;-68
2021/09/26 02:23:07;;;;;;;100.47;34.25;;;12.40;99.90;;;;;;4984451;28;20065;-68
2021/09/26 02:25:35;;;;;;;89.80;33.55;;;12.30;99.90;;;;;;4983121;28;20046;-68
2021/09/26 02:28:02;;;;;;;107.05;36.30;;;12.40;99.90;;;;;;4970822;28;20046;-68
2021/09/26 02:30:29;;;;;;;104.53;35.67;;;12.50;99.90;;;;;;4985323;28;20531;-68
2021/09/26 02:32:56;;;;;;;92.25;34.42;;;12.60;99.90;;;;;;4983777;28;20038;-68
2021/09/26 02:35:23;;;;;;;105.85;35.78;;;12.80;99.90;;;;;;4984063;28;20049;-68
2021/09/26 02:37:50;;;;;;;110.32;35.95;;;12.80;99.90;;;;;;5001838;28;20077;-67
2021/09/26 02:40:19;;;;;;;93.63;35.20;;;12.70;99.90;;;;;;5000553;28;20050;-68
2021/09/26 02:42:59;;;;;;;127.18;40.85;;;12.80;99.90;;;;;;5003033;28;20343;-68
2021/09/26 02:45:48;;;;;;;89.60;33.20;;;12.80;99.90;;;;;;4999839;28;20133;-68
2021/09/26 02:48:22;;;;;;;86.35;31.15;;;12.80;99.90;;;;;;4983639;28;20061;-68
2021/09/26 02:50:51;;;;;;;85.53;32.63;;;12.80;99.90;;;;;;5000690;28;20057;-68
2021/09/26 02:53:19;;;;;;;78.13;32.97;;;12.80;99.90;;;;;;5002769;28;20096;-68
2021/09/26 02:55:47;;;;;;;76.90;32.15;;;12.70;99.90;;;;;;5001046;28;20117;-67
2021/09/26 02:58:15;;;;;;;97.18;34.60;;;12.80;99.90;;;;;;4999222;28;20060;-68
2021/09/26 03:00:44;;;;;;;96.43;32.88;;;12.80;99.90;;;;;;4972112;28;20068;-68
2021/09/26 03:03:13;;;;;;;95.72;35.47;;;12.80;99.90;;;;;;4988178;28;20081;-68
2021/09/26 03:05:42;;;;;;;81.18;32.35;;;12.70;99.90;;;;;;4992617;28;20502;-68
2021/09/26 03:08:11;;;;;;;82.63;32.70;;;12.80;99.90;;;;;;4991811;28;20059;-67
2021/09/26 03:10:40;;;;;;;82.13;31.30;;;12.80;99.90;;;;;;4985793;28;20518;-68
2021/09/26 03:13:07;;;;;;;71.18;29.13;;;12.90;99.90;;;;;;5001433;28;20499;-68
2021/09/26 03:15:34;;;;;;;78.63;31.58;;;13.00;99.90;;;;;;4978986;28;20552;-68
2021/09/26 03:18:01;;;;;;;74.85;31.45;;;13.10;99.90;;;;;;4981453;28;20054;-68
2021/09/26 03:20:28;;;;;;;71.90;32.00;;;13.20;99.90;;;;;;4990759;28;20793;-67
2021/09/26 03:22:55;;;;;;;61.60;28.25;;;13.20;99.90;;;;;;4999682;28;20057;-68
2021/09/26 03:25:23;;;;;;;71.40;30.55;;;13.30;99.90;;;;;;4999956;28;20061;-68
2021/09/26 03:27:50;;;;;;;51.53;25.40;;;13.30;99.90;;;;;;5000460;28;20052;-68
2021/09/26 03:30:17;;;;;;;53.08;28.05;;;13.50;99.90;;;;;;4986505;28;20042;-69
2021/09/26 03:32:44;;;;;;;66.90;29.52;;;13.50;99.90;;;;;;4997813;28;20415;-68
2021/09/26 03:35:12;;;;;;;49.88;24.45;;;13.60;99.90;;;;;;4989423;28;20037;-68
2021/09/26 03:37:41;;;;;;;56.78;22.92;;;13.60;99.90;;;;;;4998460;28;20241;-68
2021/09/26 03:40:11;;;;;;;49.65;23.20;;;13.70;99.90;;;;;;4991567;28;20077;-68
2021/09/26 03:42:39;;;;;;;41.03;21.52;;;13.70;99.90;;;;;;5000984;28;20065;-68
2021/09/26 03:45:07;;;;;;;33.88;20.20;;;13.80;99.90;;;;;;5000879;28;20050;-68
2021/09/26 03:47:34;;;;;;;36.08;20.40;;;13.80;99.90;;;;;;4999895;28;20439;-68
2021/09/26 03:50:03;;;;;;;40.95;20.98;;;13.90;99.90;;;;;;4984572;28;20034;-68
2021/09/26 03:52:31;;;;;;;38.40;22.38;;;13.90;99.90;;;;;;4966774;28;20038;-68
2021/09/26 03:54:58;;;;;;;27.00;16.13;;;14.00;99.90;;;;;;4998805;28;20464;-68
2021/09/26 03:57:25;;;;;;;32.97;18.33;;;14.00;99.90;;;;;;4999819;28;20073;-69
2021/09/26 03:59:52;;;;;;;29.55;18.67;;;13.90;99.90;;;;;;4998138;28;20054;-68
2021/09/26 04:02:19;;;;;;;33.78;20.10;;;13.90;99.90;;;;;;4988738;28;20046;-68
2021/09/26 04:04:46;;;;;;;22.13;14.93;;;14.10;99.90;;;;;;4983858;28;20186;-69
2021/09/26 04:07:12;;;;;;;32.13;19.17;;;14.00;99.90;;;;;;4991081;28;20051;-68
2021/09/26 04:09:39;;;;;;;31.27;19.98;;;14.10;99.90;;;;;;4977906;28;20406;-68
2021/09/26 04:12:06;;;;;;;29.83;17.48;;;14.10;99.90;;;;;;4997424;28;20058;-68
2021/09/26 04:14:33;;;;;;;21.92;14.80;;;14.20;99.90;;;;;;4999406;28;20042;-69
2021/09/26 04:17:00;;;;;;;25.40;16.27;;;14.20;99.90;;;;;;4983960;28;20073;-69
2021/09/26 04:19:27;;;;;;;20.92;14.73;;;14.10;99.90;;;;;;5002287;28;20045;-68
2021/09/26 04:21:54;;;;;;;17.60;13.93;;;14.00;99.90;;;;;;5000985;28;20049;-69
2021/09/26 04:24:20;;;;;;;24.25;16.27;;;14.20;99.90;;;;;;4999726;28;20060;-69
2021/09/26 04:26:47;;;;;;;19.63;14.20;;;14.20;99.90;;;;;;4993780;28;20056;-68
2021/09/26 04:29:14;;;;;;;19.85;12.10;;;14.20;99.90;;;;;;4983170;28;20399;-69
2021/09/26 04:31:41;;;;;;;19.05;13.55;;;14.10;99.90;;;;;;5000020;28;20046;-68
2021/09/26 04:34:10;;;;;;;16.13;11.90;;;14.20;99.90;;;;;;4995752;28;20441;-68
2021/09/26 04:36:37;;;;;;;18.20;13.35;;;14.20;99.90;;;;;;4981701;28;20050;-69
2021/09/26 04:39:04;;;;;;;17.45;13.13;;;14.30;99.90;;;;;;4980250;28;20422;-69
2021/09/26 04:41:31;;;;;;;18.77;13.20;;;14.30;99.90;;;;;;4982916;28;20085;-69
2021/09/26 04:43:58;;;;;;;20.50;13.95;;;14.30;99.90;;;;;;4999488;28;20386;-69
2021/09/26 04:46:25;;;;;;;18.77;13.48;;;14.30;99.90;;;;;;5001873;28;20389;-68
2021/09/26 04:48:52;;;;;;;24.20;15.10;;;14.40;99.90;;;;;;5001860;28;20058;-68
2021/09/26 04:51:19;;;;;;;18.48;13.48;;;14.30;99.90;;;;;;5001841;28;20061;-69
2021/09/26 04:53:46;;;;;;;18.42;12.75;;;14.30;99.90;;;;;;4998590;28;20470;-69
2021/09/26 04:56:13;;;;;;;24.55;13.82;;;14.40;99.90;;;;;;4999190;28;20188;-69
2021/09/26 04:58:39;;;;;;;19.02;13.45;;;14.30;99.90;;;;;;4998298;28;20062;-68
2021/09/26 05:01:06;;;;;;;22.38;14.82;;;14.30;99.90;;;;;;5007801;28;20050;-69
2021/09/26 05:03:33;;;;;;;21.33;14.20;;;14.30;99.90;;;;;;5007340;28;20677;-67
2021/09/26 05:06:00;;;;;;;22.13;15.65;;;14.40;99.90;;;;;;5003618;28;20567;-69
2021/09/26 05:08:27;;;;;;;20.52;14.95;;;14.50;99.90;;;;;;5010221;28;20052;-69
2021/09/26 05:10:54;;;;;;;25.08;16.48;;;14.60;99.90;;;;;;5003945;28;20062;-69
2021/09/26 05:13:20;;;;;;;23.02;14.73;;;14.50;99.90;;;;;;5003687;28;20347;-69
2021/09/26 05:15:47;;;;;;;17.45;13.20;;;14.50;99.90;;;;;;5003232;28;20282;-68
2021/09/26 05:18:14;;;;;;;20.95;15.25;;;14.50;99.90;;;;;;5006134;28;20060;-69
2021/09/26 05:20:41;;;;;;;21.00;15.02;;;14.50;99.90;;;;;;5003407;28;20674;-69
2021/09/26 05:23:08;;;;;;;18.48;13.70;;;14.50;99.90;;;;;;5004829;28;20348;-69
2021/09/26 05:25:35;;;;;;;26.45;15.30;;;14.50;99.90;;;;;;5001276;28;20421;-69
2021/09/26 05:28:02;;;;;;;13.55;11.02;;;14.50;99.90;;;;;;4999298;28;20324;-69
2021/09/26 05:30:33;;;;;;;12.93;9.98;;;14.50;99.90;;;;;;4981570;28;20050;-68
2021/09/26 05:33:00;;;;;;;14.77;10.32;;;14.50;99.90;;;;;;4986053;28;20082;-68
2021/09/26 05:35:27;;;;;;;19.92;12.73;;;14.50;99.90;;;;;;5001021;28;21248;-69
2021/09/26 05:37:55;;;;;;;18.05;12.50;;;14.60;99.90;;;;;;5003128;28;20158;-69
2021/09/26 05:40:23;;;;;;;17.35;12.38;;;14.50;99.90;;;;;;5001114;28;20065;-68
2021/09/26 05:42:50;;;;;;;14.73;9.38;;;14.50;99.90;;;;;;4994799;28;20062;-69
2021/09/26 05:45:18;;;;;;;13.15;10.30;;;14.50;99.90;;;;;;4978889;28;20416;-69
2021/09/26 05:47:45;;;;;;;10.45;9.07;;;14.50;99.90;;;;;;5002323;28;20101;-68
2021/09/26 05:50:12;;;;;;;13.65;9.85;;;14.50;99.90;;;;;;5000159;28;20034;-69
2021/09/26 05:52:39;;;;;;;14.43;10.23;;;14.50;99.90;;;;;;4987484;28;20305;-69
2021/09/26 05:55:06;;;;;;;13.38;9.35;;;14.50;99.90;;;;;;5003160;28;20054;-69
2021/09/26 05:57:33;;;;;;;14.55;10.63;;;14.60;99.90;;;;;;4999780;28;20062;-68
2021/09/26 06:00:02;;;;;;;14.57;10.35;;;14.50;99.90;;;;;;4998800;28;20525;-70
2021/09/26 06:02:38;;;;;;;17.52;12.50;;;14.30;99.90;;;;;;4984151;28;20521;-69
2021/09/26 06:05:07;;;;;;;13.82;9.95;;;14.40;99.90;;;;;;4987114;28;20054;-69
2021/09/26 06:07:34;;;;;;;15.20;11.95;;;14.30;99.90;;;;;;5003625;28;20050;-69
2021/09/26 06:10:03;;;;;;;14.15;9.70;;;14.40;99.90;;;;;;4980923;28;20038;-69
2021/09/26 06:12:29;;;;;;;16.23;11.98;;;14.30;99.90;;;;;;4982244;28;20046;-68
2021/09/26 06:14:57;;;;;;;19.85;10.57;;;14.40;99.90;;;;;;4980969;28;20065;-69
2021/09/26 06:17:24;;;;;;;16.30;12.75;;;14.40;99.90;;;;;;5003119;28;20053;-69
2021/09/26 06:19:52;;;;;;;17.55;12.27;;;14.40;99.90;;;;;;5002888;28;20065;-69
2021/09/26 06:22:20;;;;;;;15.77;12.27;;;14.40;99.90;;;;;;4999593;28;20711;-68
2021/09/26 06:24:47;;;;;;;13.13;8.15;;;14.40;99.90;;;;;;5002736;28;20050;-68
2021/09/26 06:27:14;;;;;;;15.13;10.07;;;14.50;99.90;;;;;;5001965;28;20042;-69
2021/09/26 06:29:41;;;;;;;13.93;9.77;;;14.60;99.90;;;;;;4995928;28;20049;-69
2021/09/26 06:32:08;;;;;;;10.90;9.77;;;14.70;99.90;;;;;;4984402;28;20118;-69
2021/09/26 06:34:37;;;;;;;11.35;9.40;;;14.70;99.90;;;;;;4982093;28;20046;-69
2021/09/26 06:37:05;;;;;;;14.32;8.45;;;14.80;99.90;;;;;;4992872;28;20058;-69
2021/09/26 06:39:34;;;;;;;10.52;8.38;;;14.80;99.90;;;;;;5001621;28;20049;-69
2021/09/26 06:42:01;;;;;;;13.77;9.15;;;14.90;99.90;;;;;;4991996;28;20053;-68
2021/09/26 06:44:31;;;;;;;12.52;8.73;;;14.90;99.90;;;;;;4996022;28;20445;-69
2021/09/26 06:46:59;;;;;;;12.95;9.70;;;15.00;99.90;;;;;;4980552;28;20050;-69
2021/09/26 06:49:26;;;;;;;9.32;8.07;;;15.00;99.90;;;;;;4983530;28;20069;-67
2021/09/26 06:51:53;;;;;;;10.60;9.15;;;15.10;99.90;;;;;;4994707;28;20038;-68
2021/09/26 06:54:19;;;;;;;9.73;8.23;;;15.10;99.90;;;;;;5001182;28;20117;-68
2021/09/26 06:56:46;;;;;;;10.95;7.28;;;15.20;99.90;;;;;;4995271;28;20491;-68
2021/09/26 06:59:13;;;;;;;8.48;7.10;;;15.20;99.90;;;;;;4983414;28;20096;-69
2021/09/26 07:01:40;;;;;;;11.40;8.32;;;15.30;99.90;;;;;;5001964;28;20046;-69
2021/09/26 07:04:07;;;;;;;9.63;7.72;;;15.30;99.90;;;;;;4994360;28;20880;-68
2021/09/26 07:06:33;;;;;;;11.20;8.00;;;15.40;99.90;;;;;;4997635;28;20043;-69
2021/09/26 07:09:00;;;;;;;11.50;7.95;;;15.60;99.90;;;;;;4985071;28;20073;-69
2021/09/26 07:11:27;;;;;;;10.48;7.05;;;15.60;99.90;;;;;;5002055;28;20041;-68
2021/09/26 07:13:54;;;;;;;10.40;7.35;;;15.70;99.90;;;;;;5000273;28;20050;-69
2021/09/26 07:16:22;;;;;;;12.00;7.30;;;15.80;99.90;;;;;;4990108;28;20054;-68
2021/09/26 07:18:50;;;;;;;10.20;7.95;;;15.90;99.90;;;;;;4990636;28;20077;-68
2021/09/26 07:21:17;;;;;;;9.95;7.82;;;16.00;99.90;;;;;;5003261;28;20061;-69
2021/09/26 07:23:43;;;;;;;11.98;7.07;;;16.10;99.90;;;;;;4982021;28;20533;-68
2021/09/26 07:26:11;;;;;;;10.70;6.90;;;16.20;99.90;;;;;;5004045;28;20061;-69
2021/09/26 07:28:37;;;;;;;8.82;7.70;;;16.30;99.90;;;;;;5001518;28;20038;-69
2021/09/26 07:31:05;;;;;;;10.10;8.13;;;16.30;99.90;;;;;;4994267;28;20053;-69
2021/09/26 07:33:31;;;;;;;9.23;7.70;;;16.40;99.90;;;;;;5001184;28;20058;-68
2021/09/26 07:35:58;;;;;;;10.88;7.55;;;16.40;99.90;;;;;;5000510;28;20053;-68
2021/09/26 07:38:25;;;;;;;8.18;7.22;;;16.50;99.90;;;;;;5003420;28;20077;-67
2021/09/26 07:40:52;;;;;;;11.05;7.18;;;16.70;99.90;;;;;;5002546;28;20057;-68
2021/09/26 07:43:19;;;;;;;8.43;7.50;;;16.90;99.90;;;;;;5002852;28;20049;-68
2021/09/26 07:45:55;;;;;;;10.48;7.93;;;17.20;99.90;;;;;;5002194;28;20060;-67
2021/09/26 07:48:22;;;;;;;8.82;7.25;;;17.40;99.90;;;;;;4983311;28;20146;-68
2021/09/26 07:50:51;;;;;;;9.10;7.85;;;17.50;99.90;;;;;;4996365;28;20394;-68
2021/09/26 07:53:19;;;;;;;9.68;8.15;;;17.80;99.90;;;;;;5002646;28;20049;-69
2021/09/26 07:55:49;;;;;;;11.02;8.35;;;17.80;99.90;;;;;;5001148;28;20038;-68
2021/09/26 07:58:16;;;;;;;9.73;8.75;;;17.90;99.90;;;;;;4996788;28;20086;-68
2021/09/26 08:00:43;;;;;;;11.15;8.60;;;17.90;99.90;;;;;;4984230;28;20042;-69
2021/09/26 08:03:10;;;;;;;9.90;8.98;;;18.00;99.90;;;;;;4999026;28;20045;-69
2021/09/26 08:05:38;;;;;;;10.45;9.30;;;17.90;99.90;;;;;;5013464;28;20065;-69
2021/09/26 08:08:05;;;;;;;11.90;8.93;;;17.80;99.90;;;;;;5000603;28;20414;-68
2021/09/26 08:10:32;;;;;;;9.82;8.88;;;17.90;99.90;;;;;;4996597;28;20042;-70
2021/09/26 08:12:59;;;;;;;10.40;9.32;;;18.00;99.90;;;;;;4999035;28;20049;-70
2021/09/26 08:15:26;;;;;;;9.80;8.77;;;18.00;99.90;;;;;;5007218;28;20045;-69
2021/09/26 08:17:52;;;;;;;9.25;8.32;;;18.00;99.90;;;;;;5000030;28;20057;-69
2021/09/26 08:20:20;;;;;;;8.95;8.13;;;18.20;99.90;;;;;;4994057;28;20414;-69
2021/09/26 08:22:47;;;;;;;9.60;8.75;;;18.30;99.90;;;;;;4980680;28;20052;-69
2021/09/26 08:25:14;;;;;;;9.75;8.80;;;18.40;99.90;;;;;;4976320;28;20300;-69
2021/09/26 08:27:41;;;;;;;9.32;8.07;;;18.50;99.90;;;;;;4994579;28;20386;-69
2021/09/26 08:30:09;;;;;;;9.60;8.80;;;18.80;99.90;;;;;;4981251;28;20042;-69
2021/09/26 08:32:37;;;;;;;11.55;9.07;;;19.30;99.90;;;;;;4996072;28;20038;-70
2021/09/26 08:35:06;;;;;;;13.10;9.55;;;19.80;99.90;;;;;;4986276;28;20046;-70
2021/09/26 08:37:32;;;;;;;10.88;9.98;;;20.30;99.90;;;;;;5009886;28;20061;-71
2021/09/26 08:39:59;;;;;;;12.02;11.02;;;20.60;99.90;;;;;;4998849;28;20058;-70
2021/09/26 08:42:26;;;;;;;11.32;10.43;;;20.80;99.90;;;;;;5004032;28;20502;-70
2021/09/26 08:44:54;;;;;;;10.90;10.13;;;20.90;99.90;;;;;;5005712;28;20058;-70
2021/09/26 08:47:22;;;;;;;10.13;9.32;;;20.90;99.90;;;;;;4999873;28;20050;-70
2021/09/26 08:49:49;;;;;;;10.98;10.02;;;21.10;99.90;;;;;;5011015;28;20072;-70
2021/09/26 08:52:16;;;;;;;10.50;9.52;;;21.10;99.90;;;;;;4995039;28;20496;-70
2021/09/26 08:54:44;;;;;;;11.52;10.32;;;21.40;99.90;;;;;;5003575;28;20053;-70
2021/09/26 08:57:11;;;;;;;11.48;10.38;;;21.50;99.90;;;;;;5000111;28;20356;-70
2021/09/26 08:59:38;;;;;;;11.95;10.82;;;21.70;99.90;;;;;;4991073;28;20049;-70
2021/09/26 09:02:05;;;;;;;11.18;10.27;;;21.80;99.90;;;;;;4996641;28;20342;-71
2021/09/26 09:04:37;;;;;;;12.40;11.07;;;21.80;99.90;;;;;;4992855;28;20045;-69
2021/09/26 09:07:07;;;;;;;11.55;10.68;;;21.90;99.90;;;;;;5016828;28;20073;-70
2021/09/26 09:09:51;;;;;;;11.30;10.40;;;22.00;99.90;;;;;;4999991;28;20050;-70
2021/09/26 09:12:28;;;;;;;11.63;10.82;;;22.00;99.90;;;;;;5001081;28;20065;-70
2021/09/26 09:15:02;;;;;;;12.70;11.60;;;21.90;99.90;;;;;;4986854;28;20080;-70
2021/09/26 09:17:33;;;;;;;11.43;10.43;;;21.80;99.90;;;;;;4988385;28;20049;-70
2021/09/26 09:20:15;;;;;;;11.43;10.20;;;21.80;99.90;;;;;;5004768;28;20129;-70
2021/09/26 09:22:46;;;;;;;12.02;11.07;;;22.10;99.90;;;;;;4994165;28;20053;-71
2021/09/26 09:25:32;;;;;;;12.25;11.18;;;21.90;99.90;;;;;;5000738;28;20502;-71
2021/09/26 09:28:01;;;;;;;10.70;9.90;;;21.90;99.90;;;;;;4968913;28;20058;-70
2021/09/26 09:30:38;;;;;;;11.27;10.27;;;21.80;99.90;;;;;;4997315;28;20549;-70
2021/09/26 09:33:08;;;;;;;12.07;10.98;;;21.80;99.90;;;;;;4985237;28;20285;-70
2021/09/26 09:35:37;;;;;;;12.50;11.60;;;22.20;99.90;;;;;;5001939;28;20487;-69
2021/09/26 09:38:04;;;;;;;13.07;11.80;;;22.50;99.90;;;;;;4982910;28;20055;-70
2021/09/26 09:40:31;;;;;;;13.00;12.02;;;22.60;99.90;;;;;;5003118;28;20301;-71
2021/09/26 09:42:58;;;;;;;13.15;12.10;;;22.60;99.90;;;;;;5004099;28;20069;-70
2021/09/26 09:45:26;;;;;;;12.85;11.82;;;22.80;99.90;;;;;;4972056;28;20084;-69
2021/09/26 09:48:14;;;;;;;12.90;11.95;;;23.00;99.90;;;;;;4989905;28;20264;-70
2021/09/26 09:50:46;;;;;;;13.20;12.02;;;23.20;99.90;;;;;;4989457;28;20110;-70
2021/09/26 09:53:36;;;;;;;13.32;12.30;;;23.40;99.90;;;;;;4979987;28;20331;-70
2021/09/26 09:56:05;;;;;;;13.82;12.52;;;23.60;99.90;;;;;;5004009;28;20054;-70
2021/09/26 09:58:39;;;;;;;13.40;12.38;;;23.60;99.90;;;;;;5004076;28;20046;-71
2021/09/26 10:01:09;;;;;;;13.87;12.77;;;23.70;99.90;;;;;;5005533;28;20405;-70
2021/09/26 10:03:39;;;;;;;13.65;12.23;;;23.30;99.90;;;;;;5008939;28;20070;-70
2021/09/26 10:06:22;;;;;;;12.80;11.95;;;23.20;99.90;;;;;;4999621;28;20097;-70
2021/09/26 10:08:49;;;;;;;14.18;13.18;;;23.30;99.90;;;;;;4953685;28;20043;-70
2021/09/26 10:11:24;;;;;;;13.80;12.80;;;23.40;99.90;;;;;;4994672;28;20053;-70
2021/09/26 10:13:51;;;;;;;12.68;11.77;;;23.20;99.90;;;;;;4965707;28;20441;-70
2021/09/26 10:16:19;;;;;;;13.30;12.30;;;23.00;99.90;;;;;;5014061;28;20096;-71
2021/09/26 10:18:45;;;;;;;12.93;12.02;;;23.10;99.90;;;;;;5007374;28;20360;-71
2021/09/26 10:21:13;;;;;;;13.07;12.18;;;23.00;99.90;;;;;;4972879;28;20069;-70
2021/09/26 10:23:44;;;;;;;11.60;10.80;;;23.10;99.90;;;;;;5007430;28;20068;-70
2021/09/26 10:26:12;;;;;;;12.80;11.88;;;23.30;99.90;;;;;;4993438;28;20058;-70
2021/09/26 10:28:42;;;;;;;13.05;12.00;;;23.60;99.90;;;;;;4999891;28;20038;-70
2021/09/26 10:31:11;;;;;;;13.50;12.60;;;23.70;99.90;;;;;;4988953;28;20049;-70
2021/09/26 10:33:41;;;;;;;13.80;12.55;;;24.00;99.90;;;;;;5005431;28;20057;-70
2021/09/26 10:36:09;;;;;;;13.95;12.93;;;24.20;99.90;;;;;;4993741;28;20054;-71
2021/09/26 10:38:38;;;;;;;14.75;13.63;;;23.90;99.90;;;;;;5007738;28;20132;-71
2021/09/26 10:41:07;;;;;;;15.43;14.00;;;23.90;99.90;;;;;;5006127;28;20058;-70
2021/09/26 10:43:35;;;;;;;14.27;13.07;;;24.20;99.90;;;;;;5006567;28;20368;-70
2021/09/26 10:46:32;;;;;;;13.95;12.82;;;24.40;99.90;;;;;;5005529;28;20281;-70
2021/09/26 10:48:59;;;;;;;15.27;13.98;;;24.60;99.90;;;;;;4995161;28;20061;-70
2021/09/26 10:51:49;;;;;;;14.07;13.18;;;24.70;99.90;;;;;;4984918;28;20274;-71
2021/09/26 10:54:23;;;;;;;14.65;13.50;;;24.80;99.90;;;;;;5005475;28;20080;-71
2021/09/26 10:56:52;;;;;;;16.05;14.55;;;24.40;99.90;;;;;;5001818;28;20049;-69
2021/09/26 10:59:19;;;;;;;15.73;14.40;;;24.40;99.90;;;;;;5003579;28;20080;-70
2021/09/26 11:01:46;;;;;;;15.85;14.43;;;24.40;99.90;;;;;;4982316;28;20054;-69
2021/09/26 11:04:14;;;;;;;14.70;13.60;;;24.40;99.90;;;;;;4999504;28;20054;-68
2021/09/26 11:06:41;;;;;;;14.80;13.55;;;24.40;99.90;;;;;;4985737;28;20065;-70
2021/09/26 11:09:09;;;;;;;15.43;14.15;;;24.60;99.90;;;;;;4999485;28;20457;-70
2021/09/26 11:11:36;;;;;;;15.52;13.98;;;24.50;99.90;;;;;;5004673;28;20510;-69
2021/09/26 11:14:05;;;;;;;15.15;13.85;;;24.30;99.90;;;;;;5006519;28;20053;-69
2021/09/26 11:16:50;;;;;;;14.70;13.48;;;24.10;99.90;;;;;;5007602;28;20074;-69
2021/09/26 11:19:18;;;;;;;15.73;14.30;;;24.40;99.90;;;;;;4984293;28;20058;-68
2021/09/26 11:21:47;;;;;;;15.27;13.75;;;24.50;99.90;;;;;;4991988;28;20542;-69
2021/09/26 11:24:32;;;;;;;15.57;14.27;;;24.70;99.90;;;;;;5005262;28;20066;-69
2021/09/26 11:27:11;;;;;;;15.20;13.88;;;24.70;99.90;;;;;;4988847;28;20498;-69
2021/09/26 11:29:38;;;;;;;14.98;13.45;;;24.80;99.90;;;;;;4984116;28;20043;-70
2021/09/26 11:32:05;;;;;;;14.38;13.27;;;24.90;99.90;;;;;;5003324;28;20046;-68
2021/09/26 11:34:47;;;;;;;13.63;12.70;;;24.90;99.90;;;;;;4996050;28;20085;-69
2021/09/26 11:37:14;;;;;;;13.93;12.93;;;25.10;99.90;;;;;;4999045;28;20054;-68
2021/09/26 11:39:50;;;;;;;14.00;12.73;;;25.10;99.90;;;;;;5003660;28;20046;-69
2021/09/26 11:42:52;;;;;;;13.98;12.98;;;25.20;99.90;;;;;;5000434;28;20053;-68
2021/09/26 11:45:39;;;;;;;13.63;12.63;;;25.40;99.90;;;;;;5001588;28;20058;-69
2021/09/26 11:48:10;;;;;;;13.15;12.07;;;25.30;99.90;;;;;;4984501;28;20060;-70
2021/09/26 11:50:40;;;;;;;14.07;12.98;;;25.30;99.90;;;;;;5003537;28;20046;-70
2021/09/26 11:53:07;;;;;;;12.27;11.13;;;25.00;99.90;;;;;;5003926;28;20144;-70
2021/09/26 11:55:37;;;;;;;13.48;12.48;;;24.90;99.90;;;;;;5004868;28;20038;-70
2021/09/26 11:58:06;;;;;;;12.98;11.98;;;24.80;99.90;;;;;;5000748;28;20058;-70
2021/09/26 12:00:35;;;;;;;13.02;11.93;;;24.90;99.90;;;;;;5003586;28;20038;-69
2021/09/26 12:03:24;;;;;;;13.13;11.98;;;25.00;99.90;;;;;;4989226;28;20066;-69
2021/09/26 12:05:52;;;;;;;13.30;12.27;;;25.10;99.90;;;;;;4994086;28;20042;-70
2021/09/26 12:08:19;;;;;;;12.15;11.43;;;25.30;99.90;;;;;;5006682;28;20063;-70
2021/09/26 12:10:47;;;;;;;13.30;12.38;;;25.30;99.90;;;;;;5006128;28;20046;-70
2021/09/26 12:13:23;;;;;;;13.25;12.25;;;25.40;99.90;;;;;;5005598;28;20413;-71
2021/09/26 12:15:50;;;;;;;14.00;12.95;;;25.70;99.90;;;;;;5007105;28;20056;-70
2021/09/26 12:18:25;;;;;;;14.27;13.38;;;25.70;99.90;;;;;;5005370;28;20098;-70
2021/09/26 12:21:10;;;;;;;15.05;13.73;;;25.70;99.90;;;;;;4989975;28;20077;-69
2021/09/26 12:24:09;;;;;;;13.75;12.70;;;25.60;99.90;;;;;;5007573;28;20066;-70
2021/09/26 12:26:46;;;;;;;14.90;13.73;;;25.40;99.90;;;;;;4982060;28;20145;-70
2021/09/26 12:29:28;;;;;;;13.20;12.13;;;25.40;99.90;;;;;;4987978;28;20057;-70
2021/09/26 12:31:58;;;;;;;12.80;11.90;;;25.80;99.90;;;;;;5004930;28;20160;-70
2021/09/26 12:34:28;;;;;;;13.55;12.60;;;25.90;99.90;;;;;;5004109;28;20089;-70
2021/09/26 12:36:56;;;;;;;12.98;11.95;;;25.80;99.90;;;;;;4987040;28;20050;-70
2021/09/26 12:39:32;;;;;;;13.60;12.32;;;25.80;99.90;;;;;;5006261;28;20054;-71
2021/09/26 12:41:59;;;;;;;14.30;13.30;;;25.50;99.90;;;;;;5004214;28;20514;-70
2021/09/26 12:44:38;;;;;;;13.18;12.02;;;25.50;99.90;;;;;;5002466;28;20161;-70